X  Close Metar Aviation Weather Data     LYNI Nis Airport
Temperature
14°C Temperature
7°C Dewpoint
63% Humidity



Wind
3 M/S
7 MPH
11 KM/H
6 KTS



330°
NNW
Current Conditions

Mostly Scattered Clouds Mostly Scattered Clouds
Pressure 1023.92 (hPa) - 30.24 (inHg)
Visibility 6.2 (mile) - 10 (km)
Airport
Airport-code LYNI

Location: Nis Airport
Distance: 63 (km)

Metar:
LYNI 041700Z 33006KT 240V350 9999 SCT043 14/07 Q1024 NOSIG

Time: 04-10-2022 19:00 CEST